Time;durP1;ratioP1;P1;durP2;ratioP2;P2;SDS_P1;SDS_P2;PMS_P1;PMS_P2;Temp;Humidity;BMP_temperature;BMP_pressure;BME280_temperature;BME280_humidity;BME280_pressure;Samples;Min_cycle;Max_cycle;Signal;HPM_P1;HPM_P2
2022/12/19 05:05:20;;;;;;;14.75;9.13;;;0.90;99.90;;;;;;5236515;23;20246;-62
2022/12/19 05:07:45;;;;;;;18.10;9.20;;;0.90;99.90;;;;;;4974761;28;20211;-62
2022/12/19 05:10:12;;;;;;;12.83;9.17;;;0.90;99.90;;;;;;4974379;28;20172;-63
2022/12/19 05:12:37;;;;;;;16.73;7.97;;;0.90;99.90;;;;;;4978607;28;20322;-63
2022/12/19 05:15:04;;;;;;;13.40;8.17;;;1.00;99.90;;;;;;4993639;28;20720;-62
2022/12/19 05:17:30;;;;;;;13.05;7.10;;;1.00;99.90;;;;;;4982666;28;20207;-63
2022/12/19 05:19:55;;;;;;;20.93;8.33;;;1.10;99.90;;;;;;4974906;28;20207;-63
2022/12/19 05:22:21;;;;;;;9.90;8.90;;;1.10;99.90;;;;;;4974321;28;20646;-63
2022/12/19 05:24:47;;;;;;;14.27;8.00;;;1.10;99.90;;;;;;4974008;28;20204;-64
2022/12/19 05:27:12;;;;;;;17.17;10.60;;;1.10;99.90;;;;;;4974730;28;20290;-64
2022/12/19 05:29:38;;;;;;;17.10;9.23;;;1.00;99.90;;;;;;4985567;28;20176;-64
2022/12/19 05:32:03;;;;;;;14.80;7.37;;;1.00;99.90;;;;;;4981296;28;20180;-64
2022/12/19 05:34:29;;;;;;;15.23;8.73;;;1.00;99.90;;;;;;4972980;28;20183;-64
2022/12/19 05:36:55;;;;;;;20.07;8.20;;;1.00;99.90;;;;;;4974443;28;20187;-64
2022/12/19 05:39:20;;;;;;;12.13;9.20;;;1.00;99.90;;;;;;4974198;28;20176;-64
2022/12/19 05:41:46;;;;;;;13.90;8.47;;;1.00;99.90;;;;;;4974065;28;20176;-64
2022/12/19 05:44:11;;;;;;;15.90;7.23;;;1.00;99.90;;;;;;4973298;28;20192;-65
2022/12/19 05:46:37;;;;;;;19.40;10.60;;;1.00;99.90;;;;;;4973895;28;20228;-64
2022/12/19 05:49:02;;;;;;;16.13;8.23;;;1.00;99.90;;;;;;4974599;28;20202;-64
2022/12/19 05:51:28;;;;;;;13.10;7.23;;;1.00;99.90;;;;;;4974107;28;20180;-64
2022/12/19 05:53:53;;;;;;;18.33;11.67;;;1.00;99.90;;;;;;4974187;28;20284;-64
2022/12/19 05:56:21;;;;;;;14.90;7.90;;;1.00;99.90;;;;;;4974538;28;20184;-64
2022/12/19 05:58:48;;;;;;;10.68;7.53;;;1.10;99.90;;;;;;4974296;28;20171;-64
2022/12/19 06:01:18;;;;;;;12.93;8.60;;;1.10;99.90;;;;;;4974119;28;20251;-65
2022/12/19 06:03:44;;;;;;;12.15;6.90;;;1.20;99.90;;;;;;4973811;28;20198;-64
2022/12/19 06:06:12;;;;;;;12.35;9.15;;;1.20;99.90;;;;;;4985158;28;20214;-65
2022/12/19 06:08:38;;;;;;;21.23;9.43;;;1.20;99.90;;;;;;4993524;28;20593;-64
2022/12/19 06:11:06;;;;;;;14.20;9.50;;;1.20;99.90;;;;;;4965952;28;20204;-65
2022/12/19 06:13:33;;;;;;;13.73;9.05;;;1.20;99.90;;;;;;4973682;28;20470;-65
2022/12/19 06:16:01;;;;;;;12.40;8.52;;;1.30;99.90;;;;;;4973687;28;20536;-65
2022/12/19 06:18:27;;;;;;;15.65;9.15;;;1.20;99.90;;;;;;4973866;28;20643;-65
2022/12/19 06:21:00;;;;;;;10.50;8.70;;;1.30;99.90;;;;;;4973086;28;20668;-65
2022/12/19 06:23:36;;;;;;;12.00;8.10;;;1.30;99.90;;;;;;4973700;28;20326;-62
2022/12/19 06:26:04;;;;;;;12.50;7.72;;;1.30;99.90;;;;;;4974024;28;20208;-65
2022/12/19 06:28:31;;;;;;;12.32;7.38;;;1.40;99.90;;;;;;4956516;28;20191;-65
2022/12/19 06:31:01;;;;;;;14.38;7.38;;;1.40;99.90;;;;;;4973212;28;20202;-66
2022/12/19 06:33:28;;;;;;;15.02;9.90;;;1.50;99.90;;;;;;4972459;28;20181;-65
2022/12/19 06:36:10;;;;;;;11.82;7.65;;;1.50;99.90;;;;;;4973898;28;20531;-64
2022/12/19 06:38:36;;;;;;;17.50;9.90;;;1.60;99.90;;;;;;4973619;28;20194;-66
2022/12/19 06:43:47;;;;;;;19.17;8.75;;;1.60;99.90;;;;;;4973884;28;20330;-65
2022/12/19 06:46:12;;;;;;;12.07;7.00;;;1.60;99.90;;;;;;4956186;28;20286;-65
2022/12/19 06:48:38;;;;;;;15.90;8.30;;;1.60;99.90;;;;;;4973743;28;20180;-64
2022/12/19 06:51:04;;;;;;;14.80;8.13;;;1.60;99.90;;;;;;4976202;28;20250;-65
2022/12/19 06:53:29;;;;;;;12.93;9.70;;;1.60;99.90;;;;;;4976926;28;20291;-64
2022/12/19 06:55:58;;;;;;;15.93;9.80;;;1.60;99.90;;;;;;4976919;28;20531;-65
2022/12/19 06:58:24;;;;;;;19.92;8.25;;;1.60;99.90;;;;;;4978649;28;20420;-65
2022/12/19 07:00:50;;;;;;;15.85;10.07;;;1.60;99.90;;;;;;4977014;28;20177;-65
2022/12/19 07:03:30;;;;;;;13.83;8.40;;;1.60;99.90;;;;;;4976838;28;20243;-63
2022/12/19 07:05:56;;;;;;;12.98;6.88;;;1.60;99.90;;;;;;4977070;28;20466;-63
2022/12/19 07:08:21;;;;;;;12.20;8.27;;;1.60;99.90;;;;;;4977166;28;20176;-65
2022/12/19 07:10:47;;;;;;;10.80;7.00;;;1.60;99.90;;;;;;4976918;28;20165;-64
2022/12/19 07:13:13;;;;;;;13.30;8.53;;;1.60;99.90;;;;;;4976393;28;20168;-65
2022/12/19 07:15:39;;;;;;;10.47;7.33;;;1.60;99.90;;;;;;4976782;28;20426;-64
2022/12/19 07:18:45;;;;;;;;;;;;;;;;;;;;;
2022/12/19 07:21:11;;;;;;;15.45;9.15;;;1.60;99.90;;;;;;4976876;28;20179;-64
2022/12/19 07:23:37;;;;;;;14.70;7.87;;;1.60;99.90;;;;;;4976310;28;20705;-64
2022/12/19 07:26:03;;;;;;;12.07;8.50;;;1.60;99.90;;;;;;4976640;28;20502;-64
2022/12/19 07:28:29;;;;;;;14.77;9.30;;;1.70;99.90;;;;;;4976418;28;20176;-65
2022/12/19 07:30:54;;;;;;;13.50;7.37;;;1.70;99.90;;;;;;4976949;28;20215;-64
2022/12/19 07:33:20;;;;;;;14.87;8.47;;;1.70;99.90;;;;;;4975298;28;20177;-63
2022/12/19 07:35:45;;;;;;;15.10;9.00;;;1.70;99.90;;;;;;4976129;28;20583;-63
2022/12/19 07:38:11;;;;;;;13.07;7.80;;;1.70;99.90;;;;;;4958869;28;20181;-63
2022/12/19 07:40:37;;;;;;;12.53;7.47;;;1.70;99.90;;;;;;4975755;28;20654;-64
2022/12/19 07:43:04;;;;;;;11.93;8.47;;;1.70;99.90;;;;;;4975254;28;20169;-62
2022/12/19 07:45:31;;;;;;;14.68;7.70;;;1.70;99.90;;;;;;4976296;28;20540;-62
2022/12/19 07:48:00;;;;;;;14.63;6.55;;;1.70;99.90;;;;;;4976348;28;20528;-60
2022/12/19 07:50:27;;;;;;;14.98;9.38;;;1.70;99.90;;;;;;4975979;28;20238;-62
2022/12/19 07:52:52;;;;;;;11.27;7.40;;;1.80;99.90;;;;;;4976021;28;20251;-62
2022/12/19 07:55:18;;;;;;;13.00;8.60;;;1.80;99.90;;;;;;4976095;28;20282;-62
2022/12/19 07:57:44;;;;;;;17.93;8.07;;;1.80;99.90;;;;;;4975559;28;20180;-62
2022/12/19 08:00:10;;;;;;;16.83;10.73;;;1.90;99.90;;;;;;4976165;28;20172;-63
2022/12/19 08:02:35;;;;;;;13.48;9.27;;;1.90;99.90;;;;;;4975807;28;20210;-63
2022/12/19 08:05:02;;;;;;;14.90;8.90;;;1.90;99.90;;;;;;4975194;28;20581;-63
2022/12/19 08:07:28;;;;;;;13.68;8.82;;;2.00;99.90;;;;;;4975670;28;20558;-64
2022/12/19 08:09:53;;;;;;;11.53;8.07;;;2.10;99.90;;;;;;4958630;28;20176;-63
2022/12/19 08:12:19;;;;;;;17.03;9.20;;;2.10;99.90;;;;;;4975228;28;20569;-65
2022/12/19 08:14:45;;;;;;;17.70;8.33;;;2.20;99.90;;;;;;4975303;28;20196;-63
2022/12/19 08:17:10;;;;;;;10.80;7.30;;;2.20;99.90;;;;;;4975956;28;20465;-63
2022/12/19 08:19:36;;;;;;;13.80;10.73;;;2.20;99.90;;;;;;4975639;28;20176;-63
2022/12/19 08:22:01;;;;;;;13.50;8.53;;;2.30;99.90;;;;;;4975467;28;20214;-63
2022/12/19 08:24:27;;;;;;;9.00;7.73;;;2.40;99.90;;;;;;4975029;28;20559;-64
2022/12/19 08:26:53;;;;;;;13.20;8.53;;;2.50;99.90;;;;;;4975485;28;20670;-64
2022/12/19 08:29:18;;;;;;;9.70;8.70;;;2.50;99.90;;;;;;4981963;28;20234;-64
2022/12/19 08:31:44;;;;;;;11.70;7.80;;;2.60;99.90;;;;;;4992698;28;20164;-64
2022/12/19 08:34:10;;;;;;;11.97;8.03;;;2.70;99.90;;;;;;4974647;28;20531;-64
2022/12/19 08:36:37;;;;;;;9.53;7.57;;;2.70;99.90;;;;;;4980416;28;20482;-64
2022/12/19 08:39:02;;;;;;;15.02;8.43;;;2.80;99.90;;;;;;4994667;28;20525;-64
2022/12/19 08:41:28;;;;;;;16.27;7.77;;;2.90;99.90;;;;;;4977141;28;20230;-66
2022/12/19 08:43:54;;;;;;;12.97;7.90;;;2.90;99.90;;;;;;4982595;28;20689;-64
2022/12/19 08:46:20;;;;;;;13.47;7.20;;;3.00;99.90;;;;;;4983751;28;20203;-64
2022/12/19 08:48:46;;;;;;;8.88;7.15;;;3.10;99.90;;;;;;4974876;28;20455;-64
2022/12/19 08:51:13;;;;;;;7.23;6.33;;;3.20;99.90;;;;;;4975134;28;20207;-65
2022/12/19 08:53:40;;;;;;;12.90;7.78;;;3.30;99.90;;;;;;4974406;28;20554;-65
2022/12/19 08:56:12;;;;;;;10.93;7.70;;;3.30;99.90;;;;;;4974876;28;20177;-65
2022/12/19 08:58:38;;;;;;;11.18;8.52;;;3.40;99.90;;;;;;4978010;28;20164;-64
2022/12/19 09:01:07;;;;;;;18.52;9.90;;;3.40;99.90;;;;;;4982827;28;20207;-65
2022/12/19 09:03:34;;;;;;;17.52;10.55;;;3.40;99.90;;;;;;4980803;28;20182;-64
2022/12/19 09:06:02;;;;;;;13.02;8.70;;;3.40;99.90;;;;;;4977991;28;20209;-65
2022/12/19 09:08:29;;;;;;;12.23;7.60;;;3.40;99.90;;;;;;4987952;28;20210;-63
2022/12/19 09:10:59;;;;;;;15.35;10.23;;;3.50;99.90;;;;;;4994320;28;20172;-64
2022/12/19 09:13:26;;;;;;;13.20;8.57;;;3.50;99.90;;;;;;4992657;28;20585;-65
2022/12/19 09:16:00;;;;;;;13.27;8.00;;;3.60;99.90;;;;;;4976589;28;20180;-65
2022/12/19 09:18:26;;;;;;;18.55;10.20;;;3.60;99.90;;;;;;4980760;28;20576;-65
2022/12/19 09:20:55;;;;;;;13.60;7.97;;;3.70;99.90;;;;;;4978670;28;20180;-65
2022/12/19 09:23:22;;;;;;;10.48;8.80;;;3.70;99.90;;;;;;4956877;28;20267;-65
2022/12/19 09:25:48;;;;;;;10.20;7.78;;;3.80;99.90;;;;;;4974219;28;20180;-64
2022/12/19 09:28:14;;;;;;;18.25;8.60;;;3.80;99.90;;;;;;4974153;28;20251;-63
2022/12/19 09:30:40;;;;;;;14.30;8.90;;;3.80;99.90;;;;;;4974671;28;20263;-63
2022/12/19 09:33:05;;;;;;;15.63;8.95;;;3.80;99.90;;;;;;4957022;28;20177;-64
2022/12/19 09:35:31;;;;;;;9.87;6.97;;;3.90;99.90;;;;;;4973946;28;20192;-62
2022/12/19 09:37:57;;;;;;;14.47;9.57;;;4.00;99.90;;;;;;4974112;28;20176;-63
2022/12/19 09:40:23;;;;;;;16.90;9.83;;;4.10;99.90;;;;;;4974204;28;20209;-63
2022/12/19 09:42:48;;;;;;;17.52;8.48;;;4.10;99.90;;;;;;4974013;28;20168;-63
2022/12/19 09:45:20;;;;;;;12.87;8.40;;;4.10;99.90;;;;;;4973968;28;20665;-63
2022/12/19 09:47:47;;;;;;;13.27;8.70;;;4.20;99.90;;;;;;4974432;28;20211;-62
2022/12/19 09:50:29;;;;;;;13.40;8.25;;;4.20;99.90;;;;;;4974353;28;20263;-62
2022/12/19 09:53:00;;;;;;;9.68;8.48;;;4.30;99.90;;;;;;4973249;28;20177;-63
2022/12/19 09:55:39;;;;;;;12.48;9.50;;;4.40;99.90;;;;;;4973888;28;20213;-63
2022/12/19 09:58:25;;;;;;;11.85;7.60;;;4.60;99.90;;;;;;4973477;28;20185;-63
2022/12/19 10:00:56;;;;;;;16.73;8.60;;;4.70;99.90;;;;;;4974461;28;20172;-63
2022/12/19 10:03:27;;;;;;;9.80;8.75;;;4.80;99.90;;;;;;4973848;28;20183;-63
2022/12/19 10:05:58;;;;;;;12.15;7.50;;;4.90;99.90;;;;;;4973685;28;20233;-63
2022/12/19 10:08:30;;;;;;;14.10;9.60;;;5.00;99.90;;;;;;4958430;28;20639;-63
2022/12/19 10:11:14;;;;;;;16.10;9.52;;;5.10;99.90;;;;;;4971613;28;20188;-63
2022/12/19 10:14:00;;;;;;;12.98;8.40;;;5.40;99.90;;;;;;4973832;28;20191;-63
2022/12/19 10:16:47;;;;;;;13.90;8.85;;;5.40;99.90;;;;;;4973023;28;20218;-63
2022/12/19 10:19:18;;;;;;;19.77;8.90;;;5.60;99.90;;;;;;4967481;28;20183;-64
2022/12/19 10:21:55;;;;;;;13.45;7.80;;;5.60;99.90;;;;;;4952347;29;20202;-64
2022/12/19 10:24:46;;;;;;;16.65;9.35;;;5.70;99.90;;;;;;4952523;28;20287;-64
2022/12/19 10:27:36;;;;;;;15.80;9.10;;;5.60;99.90;;;;;;4955949;29;20207;-63
2022/12/19 10:30:15;;;;;;;15.82;8.32;;;5.70;99.90;;;;;;4956062;29;20608;-63
2022/12/19 10:32:46;;;;;;;14.65;9.15;;;5.90;99.90;;;;;;4955703;28;20190;-63
2022/12/19 10:35:15;;;;;;;22.48;8.77;;;6.10;99.90;;;;;;4956317;28;20204;-63
2022/12/19 10:37:49;;;;;;;15.20;10.20;;;6.40;99.90;;;;;;4957737;29;20184;-63
2022/12/19 10:40:47;;;;;;;13.23;8.65;;;6.80;99.90;;;;;;4956730;29;20264;-63
2022/12/19 10:43:34;;;;;;;15.75;10.05;;;7.10;99.90;;;;;;4924327;28;20181;-63
2022/12/19 10:46:12;;;;;;;15.82;8.93;;;7.40;99.90;;;;;;4946587;29;20603;-63
2022/12/19 10:48:37;;;;;;;10.68;7.68;;;7.50;99.90;;;;;;4955543;29;20205;-65
2022/12/19 10:51:03;;;;;;;12.83;8.17;;;7.80;99.90;;;;;;4956570;29;20211;-65
2022/12/19 10:53:29;;;;;;;9.63;6.83;;;8.00;99.90;;;;;;4957627;28;20559;-65
2022/12/19 10:56:10;;;;;;;11.57;7.53;;;8.00;99.90;;;;;;4974132;28;20542;-63
2022/12/19 10:58:40;;;;;;;10.23;8.20;;;8.10;99.90;;;;;;4979051;28;20407;-64
2022/12/19 11:01:28;;;;;;;12.63;7.32;;;8.10;99.90;;;;;;4984147;28;20239;-64
2022/12/19 11:04:44;;;;;;;12.98;8.27;;;8.00;99.90;;;;;;4985482;28;20215;-65
2022/12/19 11:07:20;;;;;;;13.18;9.23;;;7.90;99.90;;;;;;4953217;28;20591;-65
2022/12/19 11:09:46;;;;;;;9.65;6.10;;;7.80;99.90;;;;;;4961526;28;20210;-64
2022/12/19 11:12:14;;;;;;;10.30;7.23;;;7.70;99.90;;;;;;4976822;28;20670;-65
2022/12/19 11:14:43;;;;;;;9.40;7.35;;;7.50;99.90;;;;;;4975808;28;20592;-63
2022/12/19 11:17:32;;;;;;;13.95;6.75;;;7.40;99.90;;;;;;4976183;28;20168;-63
2022/12/19 11:19:58;;;;;;;9.00;7.05;;;7.40;99.90;;;;;;4976383;28;20184;-63
2022/12/19 11:22:29;;;;;;;12.73;7.40;;;7.30;99.90;;;;;;4976575;28;20172;-65
2022/12/19 11:24:56;;;;;;;9.55;7.97;;;7.30;99.90;;;;;;4976080;28;20311;-64
2022/12/19 11:27:40;;;;;;;17.05;8.20;;;7.20;99.90;;;;;;4976566;28;20226;-65
2022/12/19 11:30:21;;;;;;;12.48;8.00;;;7.20;99.90;;;;;;4976708;28;20179;-64
2022/12/19 11:32:49;;;;;;;14.88;8.27;;;7.30;99.90;;;;;;4976581;28;20191;-65
2022/12/19 11:35:25;;;;;;;10.18;8.98;;;7.20;99.90;;;;;;4976113;28;20191;-64
2022/12/19 11:37:53;;;;;;;10.82;8.35;;;7.20;99.90;;;;;;4976232;28;20172;-65
2022/12/19 11:40:31;;;;;;;12.52;8.13;;;7.20;99.90;;;;;;4976184;28;20172;-65
2022/12/19 11:43:26;;;;;;;12.27;8.80;;;7.30;99.90;;;;;;4976261;28;20251;-64
2022/12/19 11:46:10;;;;;;;9.80;6.97;;;7.30;99.90;;;;;;4976593;28;20163;-64
2022/12/19 11:48:58;;;;;;;11.32;7.25;;;7.30;99.90;;;;;;4976479;28;20168;-65
2022/12/19 11:51:43;;;;;;;13.40;7.70;;;7.30;99.90;;;;;;4976767;28;20185;-65
2022/12/19 11:54:18;;;;;;;12.88;8.00;;;7.40;99.90;;;;;;4975902;28;20199;-64
2022/12/19 11:56:44;;;;;;;10.93;8.63;;;7.50;99.90;;;;;;4976225;28;20203;-64
2022/12/19 11:59:17;;;;;;;15.27;9.20;;;7.50;99.90;;;;;;4976288;28;20200;-64
2022/12/19 12:01:57;;;;;;;10.90;7.85;;;7.60;99.90;;;;;;4958866;28;20259;-64
2022/12/19 12:04:37;;;;;;;15.23;8.85;;;7.60;99.90;;;;;;4975578;28;20254;-64
2022/12/19 12:07:05;;;;;;;11.70;7.65;;;7.70;99.90;;;;;;4975971;28;20195;-64
2022/12/19 12:09:39;;;;;;;15.10;8.50;;;7.70;99.90;;;;;;4975949;28;20168;-64
2022/12/19 12:12:12;;;;;;;13.02;8.93;;;7.70;99.90;;;;;;4975825;28;20199;-64
2022/12/19 12:15:22;;;;;;;10.35;7.75;;;7.80;99.90;;;;;;4975450;28;20198;-64
2022/12/19 12:18:00;;;;;;;12.57;8.25;;;7.70;99.90;;;;;;4897432;29;20262;-64
2022/12/19 12:20:37;;;;;;;9.50;7.00;;;7.70;99.90;;;;;;4948950;28;20183;-64
2022/12/19 12:23:24;;;;;;;11.40;8.43;;;7.80;99.90;;;;;;4975484;28;20186;-65
2022/12/19 12:26:02;;;;;;;11.30;7.93;;;7.80;99.90;;;;;;4975631;28;20630;-64
2022/12/19 12:29:03;;;;;;;16.40;9.00;;;7.80;99.90;;;;;;4975483;28;20527;-64
2022/12/19 12:31:32;;;;;;;13.10;9.13;;;7.70;99.90;;;;;;4932427;28;20188;-64
2022/12/19 12:34:23;;;;;;;13.25;8.65;;;7.70;99.90;;;;;;4975240;28;20203;-64
2022/12/19 12:36:55;;;;;;;10.40;8.40;;;7.80;99.90;;;;;;4975381;28;20238;-64
2022/12/19 12:39:37;;;;;;;15.20;10.10;;;7.80;99.90;;;;;;4975689;28;20230;-64
2022/12/19 12:42:22;;;;;;;11.02;7.45;;;7.80;99.90;;;;;;4974998;28;20172;-64
2022/12/19 12:44:51;;;;;;;11.63;8.07;;;7.80;99.90;;;;;;4974939;28;20203;-65
2022/12/19 12:47:21;;;;;;;10.75;8.63;;;7.90;99.90;;;;;;4974648;28;20203;-64
2022/12/19 12:50:05;;;;;;;11.68;8.10;;;7.90;99.90;;;;;;4975037;28;20292;-64
2022/12/19 12:52:33;;;;;;;11.57;7.93;;;7.90;99.90;;;;;;4975310;28;20761;-65
2022/12/19 12:55:00;;;;;;;8.43;6.13;;;7.90;99.90;;;;;;4975020;28;20215;-65
2022/12/19 12:57:25;;;;;;;12.50;7.53;;;7.90;99.90;;;;;;4975381;28;20504;-64
2022/12/19 13:00:14;;;;;;;7.90;7.10;;;7.90;99.90;;;;;;4975121;28;20175;-64
2022/12/19 13:02:41;;;;;;;16.95;8.68;;;7.90;99.90;;;;;;4974992;28;20186;-64
2022/12/19 13:05:30;;;;;;;10.88;7.60;;;7.90;99.90;;;;;;4974763;28;20207;-64
2022/12/19 13:07:56;;;;;;;12.10;8.27;;;7.90;99.90;;;;;;4975010;28;20207;-64
2022/12/19 13:10:30;;;;;;;11.00;7.17;;;7.90;99.90;;;;;;4974968;28;20173;-65
2022/12/19 13:13:01;;;;;;;15.90;9.02;;;7.90;99.90;;;;;;4957115;28;20412;-63
2022/12/19 13:15:26;;;;;;;14.05;8.65;;;7.80;99.90;;;;;;4974702;28;20279;-63
2022/12/19 13:17:52;;;;;;;11.77;8.10;;;7.80;99.90;;;;;;4974768;28;20251;-64
2022/12/19 13:20:17;;;;;;;12.70;9.20;;;7.80;99.90;;;;;;4974843;28;20288;-63
2022/12/19 13:23:02;;;;;;;13.57;8.97;;;7.80;99.90;;;;;;4974566;28;20176;-64
2022/12/19 13:25:36;;;;;;;9.50;7.30;;;7.80;99.90;;;;;;4974638;28;20211;-64
2022/12/19 13:28:02;;;;;;;13.20;8.00;;;7.80;99.90;;;;;;4974894;28;20194;-63
2022/12/19 13:30:32;;;;;;;11.97;9.60;;;7.90;99.90;;;;;;4957154;28;20243;-64
2022/12/19 13:32:57;;;;;;;8.77;7.88;;;7.90;99.90;;;;;;4957429;28;20223;-64
2022/12/19 13:35:26;;;;;;;11.90;8.77;;;7.90;99.90;;;;;;4957345;28;20227;-63
2022/12/19 13:38:00;;;;;;;11.88;9.00;;;7.80;99.90;;;;;;4974720;28;20183;-63
2022/12/19 13:40:43;;;;;;;9.30;6.97;;;7.80;99.90;;;;;;4974531;28;20290;-63
2022/12/19 13:46:04;;;;;;;12.50;8.20;;;7.60;99.90;;;;;;4974415;28;20670;-64
2022/12/19 13:48:38;;;;;;;11.60;8.10;;;7.60;99.90;;;;;;4974629;28;20220;-64
2022/12/19 13:51:06;;;;;;;12.27;8.80;;;7.50;99.90;;;;;;4974659;28;20164;-64
2022/12/19 13:53:33;;;;;;;12.20;8.05;;;7.40;99.90;;;;;;4974139;28;20187;-64
2022/12/19 13:56:02;;;;;;;14.68;10.00;;;7.30;99.90;;;;;;4973726;28;20270;-65
2022/12/19 13:58:41;;;;;;;15.27;8.82;;;7.30;99.90;;;;;;4957111;28;20177;-65
2022/12/19 14:01:22;;;;;;;13.02;8.98;;;7.20;99.90;;;;;;4960794;28;20190;-64
2022/12/19 14:03:50;;;;;;;9.82;8.35;;;7.20;99.90;;;;;;4976164;28;20272;-64
2022/12/19 14:06:28;;;;;;;12.10;8.57;;;7.10;99.90;;;;;;4977103;28;20227;-64
2022/12/19 14:09:06;;;;;;;10.85;7.88;;;7.10;99.90;;;;;;4977667;28;20258;-63
2022/12/19 14:11:42;;;;;;;10.43;7.97;;;7.10;99.90;;;;;;4977798;28;20237;-63
2022/12/19 14:17:12;;;;;;;16.38;9.32;;;7.10;99.90;;;;;;4977861;28;20181;-63
2022/12/19 14:19:44;;;;;;;12.23;9.93;;;7.00;99.90;;;;;;4977603;28;20218;-64
2022/12/19 14:22:18;;;;;;;16.10;9.07;;;7.00;99.90;;;;;;4977400;28;20177;-62
2022/12/19 14:25:10;;;;;;;14.00;9.02;;;6.80;99.90;;;;;;4977149;28;20278;-63
2022/12/19 14:27:51;;;;;;;16.27;9.15;;;6.80;99.90;;;;;;4974030;28;20298;-63
2022/12/19 14:30:21;;;;;;;14.38;8.93;;;6.60;99.90;;;;;;4977304;28;20172;-63
2022/12/19 14:32:49;;;;;;;13.13;8.30;;;6.50;99.90;;;;;;4976983;28;20189;-65
2022/12/19 14:35:20;;;;;;;11.63;8.85;;;6.50;99.90;;;;;;4977120;28;20187;-63
2022/12/19 14:37:48;;;;;;;19.45;10.55;;;6.50;99.90;;;;;;4977176;28;20204;-64
2022/12/19 14:40:17;;;;;;;12.65;9.43;;;6.40;99.90;;;;;;4977029;28;20305;-64
2022/12/19 14:45:37;;;;;;;14.15;9.23;;;6.30;99.90;;;;;;4976799;28;20565;-64
2022/12/19 14:48:26;;;;;;;15.32;8.68;;;6.30;99.90;;;;;;4976907;28;20738;-64
2022/12/19 14:51:04;;;;;;;12.60;9.18;;;6.20;99.90;;;;;;4977026;28;20244;-64
2022/12/19 14:53:31;;;;;;;13.55;10.25;;;6.20;99.90;;;;;;4976447;28;20257;-64
2022/12/19 14:56:12;;;;;;;17.30;10.38;;;6.10;99.90;;;;;;4959345;28;20179;-64
2022/12/19 14:58:39;;;;;;;14.88;10.52;;;6.00;99.90;;;;;;4976816;28;20620;-63
2022/12/19 15:01:26;;;;;;;13.90;9.07;;;6.00;99.90;;;;;;4976744;28;20189;-64
2022/12/19 15:04:04;;;;;;;11.48;9.13;;;6.00;99.90;;;;;;4976415;28;20205;-64
2022/12/19 15:06:31;;;;;;;18.05;10.98;;;5.90;99.90;;;;;;4976318;28;20208;-64
2022/12/19 15:09:06;;;;;;;13.65;9.45;;;5.90;99.90;;;;;;4976457;28;20179;-64
2022/12/19 15:14:39;;;;;;;10.00;8.40;;;5.80;99.90;;;;;;4976445;28;20244;-64
2022/12/19 15:17:22;;;;;;;18.10;9.43;;;5.70;99.90;;;;;;4976569;28;20176;-63
2022/12/19 15:19:48;;;;;;;14.77;10.13;;;5.60;99.90;;;;;;4959408;28;20176;-64
2022/12/19 15:22:15;;;;;;;8.90;7.85;;;5.60;99.90;;;;;;4976496;28;20705;-64
2022/12/19 15:24:41;;;;;;;12.82;9.88;;;5.60;99.90;;;;;;4975692;28;20277;-64
2022/12/19 15:27:13;;;;;;;14.63;8.70;;;5.60;99.90;;;;;;4976016;28;20288;-64
2022/12/19 15:29:39;;;;;;;12.98;10.35;;;5.50;99.90;;;;;;4975947;28;20177;-64
2022/12/19 15:32:04;;;;;;;15.97;8.63;;;5.50;99.90;;;;;;4976172;28;20497;-65
2022/12/19 15:34:34;;;;;;;15.43;8.90;;;5.50;99.90;;;;;;4974843;28;20201;-64
2022/12/19 15:37:01;;;;;;;13.90;9.05;;;5.40;99.90;;;;;;4975811;28;20184;-63
2022/12/19 15:39:29;;;;;;;14.80;8.45;;;5.40;99.90;;;;;;4975999;28;20241;-63
2022/12/19 15:41:58;;;;;;;13.40;9.80;;;5.40;99.90;;;;;;4958639;28;20547;-63
2022/12/19 15:44:39;;;;;;;16.17;9.55;;;5.50;99.90;;;;;;4975346;28;20233;-63
2022/12/19 15:47:14;;;;;;;15.25;9.90;;;5.40;99.90;;;;;;4975845;28;20206;-62
2022/12/19 15:49:40;;;;;;;21.02;10.45;;;5.40;99.90;;;;;;4975570;28;20239;-64
2022/12/19 15:52:18;;;;;;;15.40;10.37;;;5.30;99.90;;;;;;4975742;28;20253;-63
2022/12/19 15:54:45;;;;;;;16.40;11.77;;;5.30;99.90;;;;;;4974568;28;20399;-63
2022/12/19 15:57:23;;;;;;;15.43;10.35;;;5.20;99.90;;;;;;4974383;28;20246;-62
2022/12/19 15:59:49;;;;;;;15.70;11.52;;;5.20;99.90;;;;;;4974947;28;20177;-62
2022/12/19 16:02:21;;;;;;;14.93;8.95;;;5.10;99.90;;;;;;4975263;28;20183;-62
2022/12/19 16:04:48;;;;;;;12.93;9.40;;;5.10;99.90;;;;;;4957730;28;20210;-62
2022/12/19 16:07:16;;;;;;;12.95;9.07;;;5.00;99.90;;;;;;4975619;28;20524;-63
2022/12/19 16:09:41;;;;;;;13.07;8.73;;;5.00;99.90;;;;;;4975775;28;20171;-63
2022/12/19 16:12:19;;;;;;;10.47;8.07;;;5.00;99.90;;;;;;4978175;28;20268;-63
2022/12/19 16:14:47;;;;;;;11.55;8.07;;;5.10;99.90;;;;;;4980354;28;20626;-62
2022/12/19 16:17:18;;;;;;;9.43;8.45;;;5.10;99.90;;;;;;4974942;28;20189;-63
2022/12/19 16:19:44;;;;;;;9.98;7.93;;;5.10;99.90;;;;;;4975501;28;20165;-63
2022/12/19 16:22:20;;;;;;;10.63;8.80;;;5.00;99.90;;;;;;4957709;28;20598;-67
2022/12/19 16:24:46;;;;;;;17.08;11.50;;;5.00;99.90;;;;;;4938169;29;20197;-62
2022/12/19 16:27:27;;;;;;;12.97;10.00;;;5.00;99.90;;;;;;4965406;28;20526;-64
2022/12/19 16:29:53;;;;;;;14.02;9.95;;;5.00;99.90;;;;;;4975171;28;20436;-64
2022/12/19 16:32:22;;;;;;;12.82;10.43;;;5.00;99.90;;;;;;4975088;28;20184;-64
2022/12/19 16:34:48;;;;;;;16.73;9.32;;;4.90;99.90;;;;;;4975032;28;20194;-65
2022/12/19 16:37:14;;;;;;;18.80;10.77;;;4.90;99.90;;;;;;4974949;28;20232;-66
2022/12/19 16:39:40;;;;;;;12.20;8.23;;;4.80;99.90;;;;;;4984935;28;20180;-63
2022/12/19 16:42:13;;;;;;;9.50;8.17;;;4.90;99.90;;;;;;4994868;28;20171;-63
2022/12/19 16:44:39;;;;;;;13.25;7.70;;;4.90;99.90;;;;;;4994221;28;20254;-62
2022/12/19 16:47:11;;;;;;;13.03;10.87;;;4.90;99.90;;;;;;4988524;28;20200;-63
2022/12/19 16:49:36;;;;;;;13.07;10.77;;;4.90;99.90;;;;;;4974813;28;20176;-63
2022/12/19 16:52:02;;;;;;;15.50;9.57;;;4.90;99.90;;;;;;4974553;28;20199;-62
2022/12/19 16:54:28;;;;;;;16.10;9.70;;;4.90;99.90;;;;;;4974104;28;20190;-62
2022/12/19 16:56:53;;;;;;;11.63;10.30;;;4.80;99.90;;;;;;4974426;28;20644;-62
2022/12/19 16:59:28;;;;;;;14.10;9.53;;;4.80;99.90;;;;;;4957040;28;20362;-67
2022/12/19 17:01:54;;;;;;;14.23;10.85;;;4.80;99.90;;;;;;4974633;28;20195;-65
2022/12/19 17:04:23;;;;;;;12.18;9.00;;;4.80;99.90;;;;;;4973852;28;20219;-61
2022/12/19 17:06:49;;;;;;;13.13;10.20;;;4.80;99.90;;;;;;4974140;28;20203;-63
2022/12/19 17:09:17;;;;;;;12.05;8.70;;;4.80;99.90;;;;;;4956945;28;20183;-62
2022/12/19 17:12:03;;;;;;;17.33;11.48;;;4.70;99.90;;;;;;4974726;28;20595;-64
2022/12/19 17:14:30;;;;;;;12.70;11.45;;;4.70;99.90;;;;;;4971985;28;20244;-62
2022/12/19 17:16:58;;;;;;;12.32;10.27;;;4.70;99.90;;;;;;4974046;28;20173;-65
2022/12/19 17:19:30;;;;;;;19.90;11.20;;;4.60;99.90;;;;;;4974051;28;20208;-64
2022/12/19 17:21:56;;;;;;;13.63;9.65;;;4.60;99.90;;;;;;4974421;28;20583;-62
2022/12/19 17:24:22;;;;;;;17.50;9.13;;;4.50;99.90;;;;;;4973503;28;20207;-63
2022/12/19 17:26:48;;;;;;;12.87;9.03;;;4.50;99.90;;;;;;4956540;28;20196;-63
2022/12/19 17:29:14;;;;;;;13.03;10.00;;;4.40;99.90;;;;;;4974217;28;20479;-63
2022/12/19 17:31:40;;;;;;;11.95;10.30;;;4.40;99.90;;;;;;4974140;28;20170;-63
2022/12/19 17:34:23;;;;;;;17.42;9.10;;;4.40;99.90;;;;;;4955566;28;20201;-64
2022/12/19 17:36:48;;;;;;;17.42;11.15;;;4.30;99.90;;;;;;4973807;28;20540;-62
2022/12/19 17:39:22;;;;;;;17.47;9.30;;;4.30;99.90;;;;;;4973501;28;20177;-62
2022/12/19 17:41:49;;;;;;;18.25;11.10;;;4.30;99.90;;;;;;4956434;28;20603;-63
2022/12/19 17:44:15;;;;;;;16.80;11.10;;;4.30;99.90;;;;;;4956288;28;20204;-64
2022/12/19 17:46:41;;;;;;;15.80;13.10;;;4.30;99.90;;;;;;4973680;28;20223;-64
2022/12/19 17:49:26;;;;;;;14.98;11.90;;;4.30;99.90;;;;;;4956466;28;20199;-65
2022/12/19 17:51:52;;;;;;;13.15;10.20;;;4.20;99.90;;;;;;4974072;28;20168;-69
2022/12/19 17:54:18;;;;;;;15.35;10.48;;;4.30;99.90;;;;;;4973417;28;20204;-70
2022/12/19 17:56:44;;;;;;;16.40;10.13;;;4.30;99.90;;;;;;4973820;28;20188;-65
2022/12/19 17:59:10;;;;;;;14.67;9.23;;;4.40;99.90;;;;;;4973711;28;20184;-65
2022/12/19 18:01:37;;;;;;;14.87;8.13;;;4.40;99.90;;;;;;4956398;28;20180;-65
2022/12/19 18:04:02;;;;;;;12.27;8.63;;;4.50;99.90;;;;;;4972733;28;20188;-64
2022/12/19 18:06:28;;;;;;;12.23;10.37;;;4.50;99.90;;;;;;4972884;28;20253;-65
2022/12/19 18:08:54;;;;;;;13.37;8.63;;;4.50;99.90;;;;;;4973358;28;20178;-65
2022/12/19 18:11:23;;;;;;;18.53;11.90;;;4.50;99.90;;;;;;4956466;28;20415;-65
2022/12/19 18:13:49;;;;;;;20.23;10.63;;;4.50;99.90;;;;;;4973357;28;20524;-69
2022/12/19 18:16:18;;;;;;;15.68;10.00;;;4.50;99.90;;;;;;4954630;29;20181;-67
2022/12/19 18:18:44;;;;;;;18.23;11.80;;;4.50;99.90;;;;;;4946900;28;20238;-67
2022/12/19 18:21:17;;;;;;;13.90;10.18;;;4.50;99.90;;;;;;4973812;28;20173;-67
2022/12/19 18:23:43;;;;;;;16.45;11.27;;;4.50;99.90;;;;;;4973366;28;20197;-64
2022/12/19 18:26:10;;;;;;;11.38;9.93;;;4.40;99.90;;;;;;4973825;28;20260;-66